createdAt,value
2023-02-03T00:00:31.864Z,4.57
2023-02-03T00:02:59.396Z,3.90
2023-02-03T00:05:26.999Z,4.47
2023-02-03T00:07:54.426Z,4.55
2023-02-03T00:10:21.759Z,4.80
2023-02-03T00:12:51.363Z,4.50
2023-02-03T00:15:19.445Z,4.65
2023-02-03T00:17:46.678Z,3.75
2023-02-03T00:20:13.980Z,4.30
2023-02-03T00:22:41.267Z,4.40
2023-02-03T00:25:08.825Z,5.30
2023-02-03T00:27:36.180Z,4.55
2023-02-03T00:30:03.976Z,4.93
2023-02-03T00:32:31.435Z,4.15
2023-02-03T00:34:58.802Z,4.40
2023-02-03T00:37:26.092Z,4.32
2023-02-03T00:39:53.463Z,3.92
2023-02-03T00:42:20.816Z,3.63
2023-02-03T00:44:48.038Z,3.42
2023-02-03T00:47:15.245Z,3.70
2023-02-03T00:49:42.546Z,3.38
2023-02-03T00:52:09.824Z,3.40
2023-02-03T00:54:38.807Z,3.65
2023-02-03T00:57:06.130Z,3.15
2023-02-03T00:59:33.528Z,3.15
2023-02-03T01:02:00.936Z,3.42
2023-02-03T01:04:28.458Z,3.22
2023-02-03T01:06:57.574Z,3.65
2023-02-03T01:09:24.976Z,3.20
2023-02-03T01:11:55.060Z,3.13
2023-02-03T01:14:22.252Z,3.10
2023-02-03T01:16:49.607Z,3.00
2023-02-03T01:19:18.084Z,3.03
2023-02-03T01:21:45.384Z,3.65
2023-02-03T01:24:14.998Z,2.90
2023-02-03T01:26:42.951Z,2.92
2023-02-03T01:29:10.472Z,2.70
2023-02-03T01:31:40.098Z,2.80
2023-02-03T01:34:12.462Z,5.10
2023-02-03T01:36:40.107Z,3.50
2023-02-03T01:39:07.824Z,3.08
2023-02-03T01:41:37.236Z,3.20
2023-02-03T01:44:44.078Z,3.20
2023-02-03T01:47:34.409Z,2.88
2023-02-03T01:50:07.528Z,2.90
2023-02-03T01:52:36.847Z,2.63
2023-02-03T01:55:08.059Z,2.42
2023-02-03T01:57:52.175Z,3.80
2023-02-03T02:00:19.970Z,2.88
2023-02-03T02:02:48.916Z,2.80
2023-02-03T02:05:33.204Z,2.72
2023-02-03T02:08:03.080Z,2.40
2023-02-03T02:10:33.437Z,2.95
2023-02-03T02:13:03.356Z,2.35
2023-02-03T02:15:58.908Z,2.38
2023-02-03T02:19:10.944Z,2.50
2023-02-03T02:21:56.556Z,2.88
2023-02-03T02:24:58.011Z,1.95
2023-02-03T02:27:34.069Z,2.08
2023-02-03T02:30:31.247Z,2.20
2023-02-03T02:33:10.976Z,2.20
2023-02-03T02:35:39.436Z,2.13
2023-02-03T02:38:23.654Z,2.05
2023-02-03T02:40:54.093Z,2.42
2023-02-03T02:43:32.277Z,2.53
2023-02-03T02:46:10.258Z,2.20
2023-02-03T02:48:47.148Z,2.35
2023-02-03T02:51:16.313Z,2.33
2023-02-03T02:53:51.921Z,2.95
2023-02-03T02:56:22.011Z,2.25
2023-02-03T02:58:51.827Z,3.00
2023-02-03T03:01:19.565Z,2.97
2023-02-03T03:03:47.504Z,2.30
2023-02-03T03:06:17.602Z,2.30
2023-02-03T03:09:07.931Z,2.50
2023-02-03T03:11:43.585Z,2.13
2023-02-03T03:14:14.424Z,2.83
2023-02-03T03:16:47.565Z,2.45
2023-02-03T03:19:24.991Z,2.30
2023-02-03T03:21:59.102Z,3.17
2023-02-03T03:24:39.326Z,2.35
2023-02-03T03:27:24.219Z,2.45
2023-02-03T03:30:05.193Z,2.33
2023-02-03T03:32:33.133Z,2.65
2023-02-03T03:35:02.541Z,2.47
2023-02-03T03:37:35.624Z,2.17
2023-02-03T03:40:10.994Z,2.40
2023-02-03T03:42:50.240Z,2.67
2023-02-03T03:45:44.055Z,2.45
2023-02-03T03:48:19.971Z,2.65
2023-02-03T03:50:53.064Z,2.60
2023-02-03T03:53:22.774Z,3.00
2023-02-03T03:55:52.696Z,3.80
2023-02-03T03:58:32.097Z,3.83
2023-02-03T04:01:07.345Z,2.45
2023-02-03T04:03:41.436Z,2.55
2023-02-03T04:06:08.779Z,2.50
2023-02-03T04:08:36.048Z,2.40
2023-02-03T04:11:03.348Z,2.17
2023-02-03T04:13:30.773Z,2.85
2023-02-03T04:15:58.183Z,3.22
2023-02-03T04:18:25.564Z,2.55
2023-02-03T04:20:52.870Z,2.58
2023-02-03T04:23:20.233Z,2.47
2023-02-03T04:25:47.578Z,2.33
2023-02-03T04:28:14.885Z,2.03
2023-02-03T04:30:42.229Z,2.55
2023-02-03T04:33:09.527Z,2.20
2023-02-03T04:35:37.695Z,2.42
2023-02-03T04:38:04.993Z,2.28
2023-02-03T04:40:34.744Z,2.28
2023-02-03T04:43:08.968Z,2.90
2023-02-03T04:45:36.226Z,2.40
2023-02-03T04:48:04.876Z,2.67
2023-02-03T04:50:32.736Z,2.15
2023-02-03T04:53:01.242Z,2.45
2023-02-03T04:55:28.933Z,2.85
2023-02-03T04:58:00.948Z,2.20
2023-02-03T05:00:29.501Z,2.13
2023-02-03T05:02:57.165Z,3.13
2023-02-03T05:05:24.547Z,2.45
2023-02-03T05:07:51.838Z,2.78
2023-02-03T05:10:19.214Z,2.38
2023-02-03T05:12:46.476Z,2.40
2023-02-03T05:15:13.803Z,2.03
2023-02-03T05:17:41.284Z,2.60
2023-02-03T05:20:09.303Z,2.42
2023-02-03T05:22:36.662Z,2.85
2023-02-03T05:25:04.783Z,2.53
2023-02-03T05:27:31.995Z,2.00
2023-02-03T05:29:59.242Z,2.75
2023-02-03T05:32:27.116Z,2.83
2023-02-03T05:34:54.451Z,2.58
2023-02-03T05:37:21.773Z,2.25
2023-02-03T05:39:49.109Z,1.92
2023-02-03T05:42:16.388Z,2.08
2023-02-03T05:44:43.652Z,2.13
2023-02-03T05:47:10.831Z,2.67
2023-02-03T05:49:38.173Z,1.98
2023-02-03T05:52:05.396Z,2.08
2023-02-03T05:54:32.716Z,2.35
2023-02-03T05:57:00.005Z,1.83
2023-02-03T05:59:27.261Z,2.45
2023-02-03T06:01:54.573Z,2.20
2023-02-03T06:04:21.924Z,2.58
2023-02-03T06:06:49.217Z,1.70
2023-02-03T06:09:16.533Z,1.80
2023-02-03T06:11:43.891Z,1.90
2023-02-03T06:14:11.115Z,2.17
2023-02-03T06:16:38.456Z,1.30
2023-02-03T06:19:05.701Z,1.55
2023-02-03T06:21:33.090Z,1.42
2023-02-03T06:24:00.354Z,1.58
2023-02-03T06:26:27.507Z,1.75
2023-02-03T06:28:54.767Z,2.28
2023-02-03T06:31:22.128Z,1.30
2023-02-03T06:33:49.474Z,1.50
2023-02-03T06:36:17.080Z,1.88
2023-02-03T06:38:44.458Z,1.88
2023-02-03T06:41:11.874Z,1.67
2023-02-03T06:43:39.092Z,1.88
2023-02-03T06:46:06.591Z,1.40
2023-02-03T06:48:33.890Z,1.90
2023-02-03T06:51:01.492Z,1.50
2023-02-03T06:53:28.761Z,1.65
2023-02-03T06:55:55.984Z,1.27
2023-02-03T06:58:23.373Z,2.00
2023-02-03T07:00:51.376Z,1.63
2023-02-03T07:03:18.696Z,1.92
2023-02-03T07:05:45.925Z,1.63
2023-02-03T07:08:13.150Z,1.98
2023-02-03T07:10:41.763Z,1.65
2023-02-03T07:13:09.026Z,1.35
2023-02-03T07:15:36.402Z,1.95
2023-02-03T07:18:04.169Z,1.48
2023-02-03T07:20:32.937Z,1.85
2023-02-03T07:23:00.229Z,1.73
2023-02-03T07:25:27.595Z,1.90
2023-02-03T07:27:54.858Z,2.30
2023-02-03T07:30:22.405Z,1.92
2023-02-03T07:32:51.596Z,1.95
2023-02-03T07:35:19.568Z,1.65
2023-02-03T07:37:46.946Z,1.50
2023-02-03T07:40:14.950Z,1.55
2023-02-03T07:42:43.886Z,1.80
2023-02-03T07:45:12.388Z,2.00
2023-02-03T07:47:40.680Z,1.58
2023-02-03T07:50:08.556Z,2.00
2023-02-03T07:52:36.267Z,1.42
2023-02-03T07:55:04.020Z,1.55
2023-02-03T07:57:31.283Z,1.20
2023-02-03T07:59:58.483Z,1.58
2023-02-03T08:02:25.722Z,1.20
2023-02-03T08:04:53.053Z,1.20
2023-02-03T08:07:20.259Z,2.03
2023-02-03T08:09:47.512Z,2.65
2023-02-03T08:12:14.796Z,2.10
2023-02-03T08:14:42.051Z,2.65
2023-02-03T08:17:09.396Z,1.67
2023-02-03T08:19:36.769Z,1.50
2023-02-03T08:22:03.990Z,1.90
2023-02-03T08:24:31.314Z,1.73
2023-02-03T08:26:59.818Z,1.77
2023-02-03T08:29:27.201Z,1.20
2023-02-03T08:31:55.070Z,1.67
2023-02-03T08:34:22.397Z,1.05
2023-02-03T08:36:49.583Z,1.10
2023-02-03T08:39:16.905Z,1.67
2023-02-03T08:41:44.180Z,2.00
2023-02-03T08:44:11.408Z,1.80
2023-02-03T08:46:43.524Z,1.65
2023-02-03T08:49:11.610Z,1.33
2023-02-03T08:51:39.052Z,1.45
2023-02-03T08:54:06.330Z,1.65
2023-02-03T08:56:36.308Z,1.50
2023-02-03T08:59:03.727Z,1.80
2023-02-03T09:01:31.262Z,1.42
2023-02-03T09:03:58.806Z,1.23
2023-02-03T09:06:26.373Z,1.58
2023-02-03T09:08:53.633Z,1.60
2023-02-03T09:11:20.894Z,1.50
2023-02-03T09:13:48.787Z,1.27
2023-02-03T09:16:18.854Z,1.27
2023-02-03T09:18:47.030Z,2.53
2023-02-03T09:21:33.824Z,1.73
2023-02-03T09:24:04.699Z,1.75
2023-02-03T09:26:31.931Z,1.80
2023-02-03T09:28:59.409Z,2.13
2023-02-03T09:31:26.717Z,1.75
2023-02-03T09:33:54.066Z,1.70
2023-02-03T09:36:21.315Z,2.25
2023-02-03T09:38:48.598Z,1.70
2023-02-03T09:41:28.265Z,1.70
2023-02-03T09:44:36.171Z,1.83
2023-02-03T09:47:12.071Z,1.80
2023-02-03T09:49:47.470Z,1.85
2023-02-03T09:52:22.667Z,1.70
2023-02-03T09:55:00.760Z,1.70
2023-02-03T09:57:31.115Z,1.83
2023-02-03T10:00:02.266Z,2.45
2023-02-03T10:02:52.782Z,1.92
2023-02-03T10:05:38.813Z,1.30
2023-02-03T10:08:36.210Z,2.20
2023-02-03T10:11:19.085Z,1.48
2023-02-03T10:14:07.425Z,1.83
2023-02-03T10:16:59.071Z,2.25
2023-02-03T10:19:56.067Z,1.60
2023-02-03T10:22:28.417Z,1.48
2023-02-03T10:24:59.422Z,1.85
2023-02-03T10:27:27.786Z,2.47
2023-02-03T10:30:12.283Z,1.73
2023-02-03T10:32:39.578Z,1.85
2023-02-03T10:35:12.739Z,1.70
2023-02-03T10:37:51.534Z,1.90
2023-02-03T10:40:20.257Z,2.05
2023-02-03T10:43:07.749Z,2.15
2023-02-03T10:45:38.473Z,2.13
2023-02-03T10:48:11.521Z,2.03
2023-02-03T10:50:44.255Z,2.15
2023-02-03T10:53:25.551Z,2.40
2023-02-03T10:56:07.631Z,1.92
2023-02-03T10:58:37.052Z,2.55
2023-02-03T11:01:11.881Z,1.95
2023-02-03T11:03:43.451Z,2.45
2023-02-03T11:06:16.385Z,2.13
2023-02-03T11:08:47.026Z,2.60
2023-02-03T11:11:29.086Z,2.28
2023-02-03T11:14:13.064Z,2.28
2023-02-03T11:16:43.397Z,2.25
2023-02-03T11:19:21.558Z,2.03
2023-02-03T11:21:56.381Z,2.45
2023-02-03T11:24:28.994Z,2.58
2023-02-03T11:27:04.848Z,2.38
2023-02-03T11:29:35.273Z,2.90
2023-02-03T11:32:16.615Z,2.85
2023-02-03T11:35:15.939Z,2.85
2023-02-03T11:37:49.068Z,4.00
2023-02-03T11:40:18.125Z,3.40
2023-02-03T11:43:00.713Z,3.83
2023-02-03T11:45:42.090Z,4.32
2023-02-03T11:48:15.509Z,6.38
2023-02-03T11:51:03.614Z,3.70
2023-02-03T11:53:58.870Z,3.83
2023-02-03T11:56:58.449Z,3.60
2023-02-03T11:59:52.034Z,3.28
2023-02-03T12:02:52.065Z,3.38
2023-02-03T12:05:56.735Z,3.47
2023-02-03T12:08:46.236Z,3.95
2023-02-03T12:11:35.478Z,4.03
2023-02-03T12:14:17.366Z,4.18
2023-02-03T12:17:16.848Z,4.47
2023-02-03T12:20:03.172Z,4.18
2023-02-03T12:22:45.919Z,4.15
2023-02-03T12:25:48.342Z,4.60
2023-02-03T12:28:34.350Z,4.90
2023-02-03T12:31:15.880Z,4.30
2023-02-03T12:33:52.078Z,4.93
2023-02-03T12:36:28.601Z,8.38
2023-02-03T12:39:11.219Z,6.80
2023-02-03T12:41:46.542Z,5.00
2023-02-03T12:44:31.955Z,5.13
2023-02-03T12:47:15.529Z,5.78
2023-02-03T12:49:49.353Z,5.22
2023-02-03T12:52:43.695Z,5.30
2023-02-03T12:55:34.730Z,5.72
2023-02-03T12:58:10.477Z,5.25
2023-02-03T13:00:40.623Z,5.07
2023-02-03T13:03:13.788Z,6.00
2023-02-03T13:05:46.773Z,5.55
2023-02-03T13:08:24.088Z,5.13
2023-02-03T13:11:10.560Z,5.43
2023-02-03T13:13:46.604Z,5.15
2023-02-03T13:16:15.011Z,5.18
2023-02-03T13:18:48.174Z,5.15
2023-02-03T13:21:15.607Z,6.32
2023-02-03T13:23:48.442Z,6.25
2023-02-03T13:26:35.923Z,5.32
2023-02-03T13:29:16.195Z,6.95
2023-02-03T13:32:17.259Z,6.72
2023-02-03T13:35:21.685Z,6.80
2023-02-03T13:38:04.217Z,6.40
2023-02-03T13:40:45.643Z,6.65
2023-02-03T13:43:36.012Z,6.53
2023-02-03T13:46:09.347Z,6.80
2023-02-03T13:48:37.346Z,6.75
2023-02-03T13:51:14.499Z,8.27
2023-02-03T13:53:44.874Z,6.82
2023-02-03T13:56:26.197Z,6.10
2023-02-03T13:59:15.794Z,6.78
2023-02-03T14:01:43.705Z,6.53
2023-02-03T14:04:26.024Z,6.85
2023-02-03T14:06:53.256Z,6.75
2023-02-03T14:09:31.823Z,6.53
2023-02-03T14:12:21.104Z,5.78
2023-02-03T14:14:51.085Z,6.78
2023-02-03T14:17:44.339Z,6.80
2023-02-03T14:20:26.988Z,6.25
2023-02-03T14:23:05.338Z,6.50
2023-02-03T14:25:49.765Z,5.95
2023-02-03T14:28:31.866Z,7.35
2023-02-03T14:31:10.515Z,6.00
2023-02-03T14:34:13.178Z,6.38
2023-02-03T14:36:50.553Z,6.60
2023-02-03T14:39:17.884Z,5.82
2023-02-03T14:42:08.655Z,5.60
2023-02-03T14:44:48.110Z,5.60
2023-02-03T14:47:39.519Z,5.82
2023-02-03T14:50:40.543Z,5.35
2023-02-03T14:53:28.627Z,4.75
2023-02-03T14:56:13.452Z,5.80
2023-02-03T14:58:46.118Z,5.82
2023-02-03T15:01:29.074Z,33.53
2023-02-03T15:04:11.424Z,80.32
2023-02-03T15:06:42.767Z,85.47
2023-02-03T15:09:42.980Z,83.60
2023-02-03T15:12:26.018Z,83.43
2023-02-03T15:14:54.197Z,81.18
2023-02-03T15:17:27.832Z,87.78
2023-02-03T15:19:55.101Z,69.10
2023-02-03T15:22:30.478Z,59.60
2023-02-03T15:25:07.643Z,34.30
2023-02-03T15:27:34.921Z,28.75
2023-02-03T15:30:25.256Z,17.30
2023-02-03T15:33:17.532Z,7.75
2023-02-03T15:35:48.184Z,5.85
2023-02-03T15:38:25.892Z,4.63
2023-02-03T15:40:57.715Z,5.47
2023-02-03T15:43:32.385Z,4.82
2023-02-03T15:46:35.461Z,3.80
2023-02-03T15:49:09.085Z,3.85
2023-02-03T15:51:46.205Z,4.45
2023-02-03T15:54:25.029Z,4.55
2023-02-03T15:57:01.913Z,4.40
2023-02-03T15:59:42.527Z,5.00
2023-02-03T16:02:24.913Z,5.55
2023-02-03T16:04:52.862Z,4.05
2023-02-03T16:07:25.821Z,4.60
2023-02-03T16:09:54.583Z,5.05
2023-02-03T16:12:25.781Z,4.47
2023-02-03T16:14:55.187Z,5.10
2023-02-03T16:17:39.256Z,5.40
2023-02-03T16:20:12.376Z,4.72
2023-02-03T16:22:42.407Z,3.50
2023-02-03T16:25:23.132Z,3.63
2023-02-03T16:28:20.614Z,3.72
2023-02-03T16:31:21.431Z,3.33
2023-02-03T16:34:09.352Z,3.22
2023-02-03T16:37:01.342Z,3.45
2023-02-03T16:39:47.695Z,4.03
2023-02-03T16:42:40.305Z,3.90
2023-02-03T16:45:34.976Z,3.72
2023-02-03T16:48:22.561Z,4.20
2023-02-03T16:50:58.947Z,3.30
2023-02-03T16:53:30.246Z,3.50
2023-02-03T16:56:00.218Z,2.97
2023-02-03T16:58:28.158Z,4.28
2023-02-03T17:00:57.568Z,4.10
2023-02-03T17:03:27.334Z,3.58
2023-02-03T17:05:57.549Z,4.47
2023-02-03T17:08:26.150Z,3.72
2023-02-03T17:10:53.751Z,3.35
2023-02-03T17:13:22.979Z,4.15
2023-02-03T17:15:55.391Z,3.45
2023-02-03T17:18:22.750Z,3.25
2023-02-03T17:20:51.104Z,4.00
2023-02-03T17:23:18.971Z,3.15
2023-02-03T17:25:48.961Z,6.82
2023-02-03T17:28:16.952Z,3.92
2023-02-03T17:30:45.173Z,3.35
2023-02-03T17:33:12.551Z,2.33
2023-02-03T17:35:41.574Z,3.70
2023-02-03T17:38:10.275Z,3.50
2023-02-03T17:54:33.736Z,3.70
2023-02-03T17:57:01.354Z,2.72
2023-02-03T17:59:28.991Z,2.78
2023-02-03T18:01:56.602Z,3.67
2023-02-03T18:04:23.929Z,3.20
2023-02-03T18:06:54.581Z,9.13
2023-02-03T18:09:21.971Z,3.15
2023-02-03T18:11:49.877Z,3.25
2023-02-03T18:14:18.133Z,3.42
2023-02-03T18:16:45.746Z,3.10
2023-02-03T18:19:15.697Z,3.20
2023-02-03T18:21:44.062Z,3.58
2023-02-03T18:24:13.487Z,3.03
2023-02-03T18:26:50.998Z,10.77
2023-02-03T18:29:19.435Z,3.00
2023-02-03T18:31:47.967Z,3.20
2023-02-03T18:34:16.172Z,3.72
2023-02-03T18:36:43.622Z,3.35
2023-02-03T18:39:12.623Z,3.22
2023-02-03T18:41:40.620Z,3.78
2023-02-03T18:44:07.969Z,3.20
2023-02-03T18:46:35.407Z,3.25
2023-02-03T18:49:02.866Z,4.13
2023-02-03T18:51:30.129Z,3.45
2023-02-03T18:53:58.991Z,2.60
2023-02-03T18:56:28.320Z,3.30
2023-02-03T18:58:55.633Z,3.00
2023-02-03T19:01:28.320Z,3.70
2023-02-03T19:03:56.990Z,3.33
2023-02-03T19:06:25.448Z,2.75
2023-02-03T19:08:52.932Z,3.42
2023-02-03T19:11:20.239Z,3.42
2023-02-03T19:13:47.546Z,3.00
2023-02-03T19:16:17.731Z,2.22
2023-02-03T19:18:45.890Z,3.17
2023-02-03T19:21:14.054Z,4.07
2023-02-03T19:23:42.146Z,4.03
2023-02-03T19:26:10.258Z,3.60
2023-02-03T19:28:38.501Z,3.92
2023-02-03T19:31:08.858Z,3.50
2023-02-03T19:33:37.476Z,4.85
2023-02-03T19:36:06.146Z,4.25
2023-02-03T19:38:33.976Z,3.58
2023-02-03T19:41:02.508Z,4.10
2023-02-03T19:43:33.014Z,4.22
2023-02-03T19:46:00.580Z,3.40
2023-02-03T19:48:28.130Z,4.45
2023-02-03T19:50:55.570Z,4.10
2023-02-03T19:53:24.340Z,5.03
2023-02-03T19:55:51.836Z,4.55
2023-02-03T19:58:19.400Z,5.95
2023-02-03T20:00:46.981Z,5.80
2023-02-03T20:03:14.507Z,5.57
2023-02-03T20:05:41.916Z,5.50
2023-02-03T20:08:13.159Z,5.53
2023-02-03T20:10:42.376Z,5.57
2023-02-03T20:13:10.820Z,5.68
2023-02-03T20:15:38.335Z,6.40
2023-02-03T20:18:06.908Z,5.53
2023-02-03T20:20:35.229Z,5.78
2023-02-03T20:23:02.517Z,6.25
2023-02-03T20:25:29.830Z,6.45
2023-02-03T20:27:58.226Z,6.60
2023-02-03T20:30:25.662Z,6.75
2023-02-03T20:32:54.661Z,6.50
2023-02-03T20:35:23.703Z,6.55
2023-02-03T20:37:51.361Z,6.75
2023-02-03T20:40:22.538Z,6.22
2023-02-03T20:42:51.191Z,5.78
2023-02-03T20:45:20.719Z,5.55
2023-02-03T20:47:48.115Z,5.72
2023-02-03T20:50:18.899Z,5.95
2023-02-03T20:52:51.626Z,5.05
2023-02-03T20:55:22.179Z,5.45
2023-02-03T20:57:55.061Z,4.68
2023-02-03T21:00:25.117Z,4.80
2023-02-03T21:03:11.601Z,4.47
2023-02-03T21:05:42.234Z,4.22
2023-02-03T21:08:17.811Z,4.88
2023-02-03T21:10:46.888Z,3.92
2023-02-03T21:13:20.596Z,3.53
2023-02-03T21:15:53.527Z,4.20
2023-02-03T21:18:34.864Z,4.10
2023-02-03T21:21:02.946Z,3.70
2023-02-03T21:23:42.069Z,3.60
2023-02-03T21:26:29.816Z,3.35
2023-02-03T21:28:59.338Z,3.50
2023-02-03T21:31:26.673Z,3.45
2023-02-03T21:33:58.890Z,4.47
2023-02-03T21:36:30.364Z,3.30
2023-02-03T21:39:00.054Z,3.58
2023-02-03T21:41:32.622Z,3.85
2023-02-03T21:44:00.660Z,4.10
2023-02-03T21:46:31.741Z,3.85
2023-02-03T21:49:01.305Z,2.65
2023-02-03T21:51:38.576Z,3.92
2023-02-03T21:54:27.161Z,2.50
2023-02-03T21:56:55.497Z,4.03
2023-02-03T21:59:29.673Z,3.60
2023-02-03T22:01:58.685Z,3.47
2023-02-03T22:04:30.637Z,3.42
2023-02-03T22:06:58.130Z,4.30
2023-02-03T22:09:27.277Z,3.65
2023-02-03T22:11:54.564Z,3.10
2023-02-03T22:14:22.367Z,3.00
2023-02-03T22:16:50.171Z,3.28
2023-02-03T22:19:18.038Z,2.92
2023-02-03T22:21:47.737Z,3.83
2023-02-03T22:24:15.111Z,2.80
2023-02-03T22:26:45.379Z,3.67
2023-02-03T22:29:12.695Z,3.85
2023-02-03T22:31:42.591Z,3.08
2023-02-03T22:34:10.195Z,3.50
2023-02-03T22:36:37.789Z,3.78
2023-02-03T22:39:05.216Z,4.60
2023-02-03T22:41:32.621Z,3.70
2023-02-03T22:44:00.699Z,4.45
2023-02-03T22:46:31.956Z,3.15
2023-02-03T22:49:02.445Z,3.38
2023-02-03T22:51:29.777Z,3.53
2023-02-03T22:53:57.286Z,3.60
2023-02-03T22:56:25.093Z,3.20
2023-02-03T22:58:52.755Z,3.95
2023-02-03T23:01:20.050Z,3.53
2023-02-03T23:03:47.400Z,3.30
2023-02-03T23:06:15.087Z,2.80
2023-02-03T23:08:42.527Z,3.90
2023-02-03T23:11:09.872Z,4.00
2023-02-03T23:13:39.364Z,4.07
2023-02-03T23:16:06.913Z,3.20
2023-02-03T23:18:34.168Z,3.25
2023-02-03T23:21:01.618Z,3.80
2023-02-03T23:23:28.851Z,3.58
2023-02-03T23:25:56.193Z,3.20
2023-02-03T23:28:23.978Z,3.05
2023-02-03T23:30:51.354Z,3.65
2023-02-03T23:33:18.759Z,3.65
2023-02-03T23:35:46.106Z,3.15
2023-02-03T23:38:17.366Z,3.97
2023-02-03T23:40:45.114Z,3.78
2023-02-03T23:43:12.610Z,2.95
2023-02-03T23:45:40.505Z,3.88
2023-02-03T23:48:08.350Z,3.22
2023-02-03T23:50:35.624Z,3.45
2023-02-03T23:53:02.868Z,3.55
2023-02-03T23:55:31.270Z,3.22
2023-02-03T23:57:58.615Z,2.97
